Aviation Digital Data Service (ADDS)

Output produced by METARs form (1953 UTC 06 December 2016)
found at http://aviationweather.gov/adds/metars/
 
KSYR 061737Z 0618/0718 10008KT P6SM SCT060 OVC120 
     FM070100 10008KT P6SM OVC035 
     FM070300 11008KT 3SM -RA BR OVC012 
     FM070900 15008KT P6SM -SHRA OVC015 
     FM071400 24012KT P6SM OVC025